Time;durP1;ratioP1;P1;durP2;ratioP2;P2;SDS_P1;SDS_P2;PMS_P1;PMS_P2;Temp;Humidity;BMP_temperature;BMP_pressure;BME280_temperature;BME280_humidity;BME280_pressure;Samples;Min_cycle;Max_cycle;Signal;HPM_P1;HPM_P2
2024/04/25 00:00:50;;;;;;;1.10;0.77;;;16.70;56.10;;;;;;5451078;26;20402;-64
2024/04/25 00:03:15;;;;;;;0.85;0.55;;;16.70;56.10;;;;;;5452426;26;20744;-64
2024/04/25 00:05:41;;;;;;;0.75;0.55;;;16.70;56.20;;;;;;5452234;26;20258;-63
2024/04/25 00:08:07;;;;;;;1.83;0.45;;;16.70;56.20;;;;;;5451623;26;20219;-64
2024/04/25 00:10:36;;;;;;;0.65;0.50;;;16.70;56.20;;;;;;5452492;26;20219;-63
2024/04/25 00:13:02;;;;;;;0.60;0.60;;;16.70;56.20;;;;;;5452092;26;20799;-63
2024/04/25 00:15:28;;;;;;;0.73;0.55;;;16.70;56.20;;;;;;5451400;26;20219;-64
2024/04/25 00:17:53;;;;;;;0.75;0.40;;;16.70;56.20;;;;;;5451800;26;20313;-64
2024/04/25 00:20:18;;;;;;;0.47;0.40;;;16.70;56.20;;;;;;5451564;26;20316;-64
2024/04/25 00:22:44;;;;;;;0.30;0.30;;;16.70;56.20;;;;;;5451747;26;20257;-64
2024/04/25 00:25:09;;;;;;;0.60;0.55;;;16.70;56.20;;;;;;5452231;26;20277;-63
2024/04/25 00:27:35;;;;;;;0.30;0.30;;;16.70;56.30;;;;;;5451291;26;21079;-63
2024/04/25 00:30:01;;;;;;;0.60;0.50;;;16.60;56.20;;;;;;5451805;26;20219;-63
2024/04/25 00:32:26;;;;;;;1.27;0.50;;;16.60;56.20;;;;;;5452165;26;20623;-63
2024/04/25 00:34:52;;;;;;;0.50;0.50;;;16.60;56.20;;;;;;5450886;26;20291;-63
2024/04/25 00:37:20;;;;;;;0.63;0.50;;;16.60;56.20;;;;;;5451900;26;20262;-64
2024/04/25 00:39:46;;;;;;;0.50;0.50;;;16.60;56.20;;;;;;5451561;26;20219;-63
2024/04/25 00:42:20;;;;;;;0.50;0.50;;;16.60;56.20;;;;;;5451072;26;20258;-64
2024/04/25 00:44:46;;;;;;;0.65;0.55;;;16.60;56.20;;;;;;5420876;26;20219;-64
2024/04/25 00:47:18;;;;;;;0.55;0.55;;;16.60;56.20;;;;;;5451888;26;20266;-64
2024/04/25 00:49:44;;;;;;;0.65;0.32;;;16.60;56.20;;;;;;5450760;26;20319;-64
2024/04/25 00:52:12;;;;;;;1.48;0.50;;;16.60;56.20;;;;;;5420348;26;20319;-63
2024/04/25 00:54:38;;;;;;;0.40;0.40;;;16.50;56.20;;;;;;5451819;26;20227;-63
2024/04/25 00:57:04;;;;;;;0.93;0.52;;;16.50;56.20;;;;;;5450434;26;20284;-63
2024/04/25 00:59:30;;;;;;;1.90;0.50;;;16.50;56.20;;;;;;5420365;26;20650;-64
2024/04/25 01:01:58;;;;;;;0.70;0.40;;;16.50;56.20;;;;;;5419861;26;20227;-64
2024/04/25 01:04:26;;;;;;;0.40;0.40;;;16.50;56.20;;;;;;5450393;26;20224;-63
2024/04/25 01:06:52;;;;;;;0.30;0.30;;;16.50;56.20;;;;;;5420202;26;20736;-63
2024/04/25 01:09:18;;;;;;;0.47;0.30;;;16.50;56.20;;;;;;5390768;26;20601;-63
2024/04/25 01:11:43;;;;;;;0.73;0.50;;;16.50;56.20;;;;;;5450435;26;20231;-63
2024/04/25 01:14:09;;;;;;;0.90;0.38;;;16.50;56.20;;;;;;5451492;26;20261;-63
2024/04/25 01:16:34;;;;;;;1.55;0.63;;;16.50;56.20;;;;;;5450605;26;20258;-63
2024/04/25 01:19:00;;;;;;;1.13;0.60;;;16.50;56.20;;;;;;5450884;26;20247;-64
2024/04/25 01:21:25;;;;;;;0.45;0.40;;;16.50;56.30;;;;;;5451399;26;20219;-63
2024/04/25 01:23:51;;;;;;;0.50;0.50;;;16.50;56.20;;;;;;5449921;26;20349;-63
2024/04/25 01:26:16;;;;;;;1.88;0.70;;;16.40;56.20;;;;;;5390332;26;20328;-63
2024/04/25 01:28:42;;;;;;;0.50;0.50;;;16.40;56.20;;;;;;5393392;26;20224;-63
2024/04/25 01:31:08;;;;;;;0.50;0.50;;;16.40;56.20;;;;;;5422418;26;20220;-63
2024/04/25 01:33:34;;;;;;;0.32;0.32;;;16.40;56.20;;;;;;5454652;26;20221;-63
2024/04/25 01:36:00;;;;;;;0.50;0.50;;;16.40;56.20;;;;;;5454299;26;20288;-63
2024/04/25 01:38:25;;;;;;;0.95;0.50;;;16.40;56.30;;;;;;5453796;26;20220;-64
2024/04/25 01:40:51;;;;;;;0.73;0.32;;;16.40;56.20;;;;;;5454350;26;20223;-64
2024/04/25 01:43:17;;;;;;;0.73;0.50;;;16.40;56.20;;;;;;5454434;26;20227;-64
2024/04/25 01:45:42;;;;;;;0.70;0.55;;;16.40;56.20;;;;;;5421776;26;20271;-64
2024/04/25 01:48:08;;;;;;;1.15;0.50;;;16.40;56.30;;;;;;5454464;26;20255;-63
2024/04/25 01:50:33;;;;;;;0.50;0.40;;;16.30;56.30;;;;;;5454523;26;20215;-63
2024/04/25 01:52:59;;;;;;;0.70;0.70;;;16.30;56.30;;;;;;5453288;26;20657;-63
2024/04/25 01:55:25;;;;;;;0.60;0.60;;;16.30;56.30;;;;;;5454481;26;20223;-63
2024/04/25 01:57:51;;;;;;;0.50;0.50;;;16.30;56.30;;;;;;5453927;26;20219;-63
2024/04/25 02:00:17;;;;;;;0.60;0.60;;;16.30;56.30;;;;;;5453681;26;20220;-63
2024/04/25 02:02:42;;;;;;;1.25;0.60;;;16.30;56.20;;;;;;5453798;26;20262;-63
2024/04/25 02:05:08;;;;;;;0.40;0.30;;;16.30;56.20;;;;;;5454303;26;20220;-63
2024/04/25 02:07:33;;;;;;;0.50;0.50;;;16.30;56.20;;;;;;5453599;26;20307;-63
2024/04/25 02:09:59;;;;;;;0.60;0.50;;;16.30;56.30;;;;;;5453655;26;20212;-63
2024/04/25 02:12:25;;;;;;;0.75;0.60;;;16.30;56.30;;;;;;5454126;26;20559;-63
2024/04/25 02:14:51;;;;;;;0.50;0.50;;;16.30;56.30;;;;;;5452821;26;20223;-63
2024/04/25 02:17:16;;;;;;;1.00;0.63;;;16.30;56.30;;;;;;5453717;26;20315;-63
2024/04/25 02:19:42;;;;;;;0.75;0.50;;;16.20;56.20;;;;;;5453493;26;20247;-63
2024/04/25 02:27:36;;;;;;;0.75;0.60;;;16.20;56.20;;;;;;5453177;26;20262;-63
2024/04/25 02:30:01;;;;;;;1.73;0.68;;;16.20;56.20;;;;;;5453632;26;20223;-63
2024/04/25 02:32:27;;;;;;;0.85;0.60;;;16.20;56.20;;;;;;5453938;26;20555;-64
2024/04/25 02:34:52;;;;;;;0.77;0.77;;;16.20;56.20;;;;;;5452637;26;20235;-64
2024/04/25 02:37:18;;;;;;;0.68;0.50;;;16.20;56.20;;;;;;5453538;26;20319;-63
2024/04/25 02:39:43;;;;;;;1.67;0.55;;;16.20;56.20;;;;;;5452083;26;20231;-64
2024/04/25 02:42:09;;;;;;;1.00;0.50;;;16.20;56.20;;;;;;5452925;26;20619;-64
2024/04/25 02:44:34;;;;;;;0.60;0.60;;;16.20;56.20;;;;;;5453605;26;20729;-64
2024/04/25 02:47:00;;;;;;;1.13;0.75;;;16.20;56.20;;;;;;5453211;26;20323;-64
2024/04/25 02:49:27;;;;;;;1.08;0.70;;;16.10;56.20;;;;;;5452908;26;20646;-63
2024/04/25 02:51:52;;;;;;;0.75;0.60;;;16.10;56.20;;;;;;5453115;26;20617;-63
2024/04/25 02:54:18;;;;;;;0.60;0.60;;;16.10;56.20;;;;;;5453574;26;20219;-63
2024/04/25 02:56:43;;;;;;;1.00;0.82;;;16.10;56.20;;;;;;5452164;26;20312;-63
2024/04/25 02:59:09;;;;;;;0.50;0.50;;;16.10;56.20;;;;;;5453486;26;20223;-63
2024/04/25 03:01:35;;;;;;;1.25;0.65;;;16.10;56.20;;;;;;5453509;26;20219;-63
2024/04/25 03:04:00;;;;;;;1.00;0.52;;;16.10;56.30;;;;;;5420545;26;20250;-63
2024/04/25 03:06:26;;;;;;;1.70;0.80;;;16.10;56.30;;;;;;5453436;26;20228;-63
2024/04/25 03:08:51;;;;;;;0.55;0.55;;;16.10;56.20;;;;;;5452930;26;20231;-64
2024/04/25 03:11:17;;;;;;;0.90;0.70;;;16.10;56.30;;;;;;5452407;26;20686;-63
2024/04/25 03:13:42;;;;;;;0.90;0.70;;;16.10;56.20;;;;;;5452570;26;20231;-63
2024/04/25 03:16:08;;;;;;;0.98;0.75;;;16.10;56.30;;;;;;5452403;26;20232;-63
2024/04/25 03:18:34;;;;;;;0.63;0.55;;;16.10;56.30;;;;;;5452979;26;20282;-64
2024/04/25 03:21:06;;;;;;;1.02;0.68;;;16.10;56.20;;;;;;5452875;26;20223;-64
2024/04/25 03:23:35;;;;;;;0.93;0.80;;;16.00;56.20;;;;;;5452313;26;20216;-63
2024/04/25 03:26:02;;;;;;;2.00;0.82;;;16.10;56.30;;;;;;5452352;26;20603;-63
2024/04/25 03:28:27;;;;;;;0.98;0.70;;;16.00;56.20;;;;;;5453024;26;20216;-63
2024/04/25 03:30:53;;;;;;;0.73;0.65;;;16.10;56.30;;;;;;5451813;26;20725;-63
2024/04/25 03:33:18;;;;;;;0.77;0.47;;;16.00;56.30;;;;;;5453088;26;20655;-63
2024/04/25 03:35:44;;;;;;;1.30;0.70;;;16.00;56.30;;;;;;5452621;26;20227;-63
2024/04/25 03:38:09;;;;;;;1.15;0.82;;;16.00;56.30;;;;;;5452023;26;20635;-63
2024/04/25 03:40:37;;;;;;;0.70;0.70;;;16.00;56.30;;;;;;5452771;26;20695;-64
2024/04/25 03:43:03;;;;;;;1.13;0.73;;;16.00;56.30;;;;;;5452427;26;20215;-64
2024/04/25 03:45:29;;;;;;;1.95;0.80;;;16.00;56.30;;;;;;5452092;26;20224;-64
2024/04/25 03:47:54;;;;;;;1.27;0.73;;;16.00;56.30;;;;;;5452266;26;20698;-64
2024/04/25 03:50:20;;;;;;;1.80;0.70;;;16.00;56.30;;;;;;5452065;26;20774;-64
2024/04/25 03:52:46;;;;;;;1.23;0.80;;;16.00;56.30;;;;;;5451548;26;20216;-64
2024/04/25 03:55:12;;;;;;;0.88;0.60;;;15.90;56.20;;;;;;5452642;26;20215;-64
2024/04/25 03:57:37;;;;;;;0.85;0.60;;;15.90;56.20;;;;;;5452703;26;20219;-63
2024/04/25 04:00:04;;;;;;;1.77;0.98;;;16.00;56.30;;;;;;5451463;26;20215;-64
2024/04/25 04:02:29;;;;;;;1.05;0.77;;;15.90;56.30;;;;;;5452585;26;20262;-64
2024/04/25 04:04:55;;;;;;;0.60;0.60;;;16.00;56.30;;;;;;5452190;26;20219;-63
2024/04/25 04:07:21;;;;;;;0.95;0.47;;;15.90;56.30;;;;;;5451640;26;20316;-63
2024/04/25 04:09:47;;;;;;;1.05;0.70;;;15.90;56.90;;;;;;5452052;26;20215;-63
2024/04/25 04:12:13;;;;;;;1.00;0.63;;;15.90;56.30;;;;;;5452495;26;20634;-63
2024/04/25 04:14:39;;;;;;;1.40;0.60;;;15.90;56.30;;;;;;5451527;26;20246;-63
2024/04/25 04:17:05;;;;;;;0.70;0.60;;;15.90;56.30;;;;;;5452283;26;20220;-63
2024/04/25 04:19:30;;;;;;;0.98;0.82;;;15.90;56.30;;;;;;5419057;26;20267;-65
2024/04/25 04:21:56;;;;;;;1.48;0.90;;;15.90;56.30;;;;;;5415912;26;20228;-63
2024/04/25 04:24:21;;;;;;;1.80;0.98;;;15.90;56.30;;;;;;5416265;26;20631;-63
2024/04/25 04:26:47;;;;;;;1.02;0.77;;;15.90;56.30;;;;;;5415103;26;20267;-63
2024/04/25 04:29:13;;;;;;;1.40;0.70;;;15.90;56.30;;;;;;5416228;26;20604;-62
2024/04/25 04:31:38;;;;;;;0.63;0.60;;;15.80;56.20;;;;;;5416277;26;20267;-63
2024/04/25 04:34:04;;;;;;;1.20;0.75;;;15.90;56.30;;;;;;5415104;26;20255;-63
2024/04/25 04:36:33;;;;;;;1.33;0.77;;;15.80;56.20;;;;;;5416270;26;20255;-64
2024/04/25 04:39:00;;;;;;;1.85;0.90;;;15.90;56.30;;;;;;5415700;26;20681;-64
2024/04/25 04:41:25;;;;;;;0.68;0.60;;;15.80;56.20;;;;;;5415309;26;20610;-63
2024/04/25 04:43:51;;;;;;;1.20;0.75;;;15.90;56.30;;;;;;5415616;26;20263;-64
2024/04/25 04:46:16;;;;;;;0.82;0.80;;;15.90;56.30;;;;;;5416054;26;20236;-64
2024/04/25 04:48:45;;;;;;;0.80;0.80;;;15.90;56.30;;;;;;5414703;26;20224;-64
2024/04/25 04:51:20;;;;;;;0.88;0.50;;;15.80;56.20;;;;;;5415990;26;20220;-63
2024/04/25 04:53:46;;;;;;;0.95;0.70;;;15.80;56.20;;;;;;5415444;26;20320;-64
2024/04/25 04:56:11;;;;;;;1.98;0.73;;;15.80;56.20;;;;;;5415057;26;20224;-64
2024/04/25 04:58:38;;;;;;;0.90;0.60;;;15.80;56.20;;;;;;5415775;26;20224;-63
2024/04/25 05:01:03;;;;;;;0.88;0.68;;;15.80;56.20;;;;;;5415428;26;20227;-64
2024/04/25 05:03:29;;;;;;;0.93;0.80;;;15.80;56.20;;;;;;5418172;26;20271;-63
2024/04/25 05:05:54;;;;;;;1.10;0.65;;;15.80;56.20;;;;;;5418721;26;20270;-63
2024/04/25 05:08:20;;;;;;;0.93;0.80;;;15.80;56.20;;;;;;5419167;26;20321;-63
2024/04/25 05:10:46;;;;;;;1.25;0.80;;;15.80;56.20;;;;;;5417911;26;20258;-62
2024/04/25 05:13:11;;;;;;;1.05;1.00;;;15.80;56.20;;;;;;5418983;26;20382;-63
2024/04/25 05:15:37;;;;;;;1.52;0.80;;;15.80;56.20;;;;;;5418483;26;20220;-63
2024/04/25 05:18:05;;;;;;;1.27;0.90;;;15.80;56.20;;;;;;5418515;26;20275;-63
2024/04/25 05:20:31;;;;;;;0.93;0.52;;;15.80;56.20;;;;;;5418968;26;20381;-63
2024/04/25 05:22:57;;;;;;;0.75;0.70;;;15.80;56.20;;;;;;5417557;26;20265;-63
2024/04/25 05:25:23;;;;;;;1.23;0.90;;;15.80;56.20;;;;;;5418937;26;20283;-63
2024/04/25 05:27:48;;;;;;;1.00;0.73;;;15.80;56.20;;;;;;5418580;26;20220;-63
2024/04/25 05:30:15;;;;;;;0.93;0.80;;;15.80;56.20;;;;;;5417996;26;20259;-62
2024/04/25 05:32:40;;;;;;;0.80;0.80;;;15.80;56.20;;;;;;5418584;26;20220;-63
2024/04/25 05:35:06;;;;;;;1.42;0.98;;;15.80;56.80;;;;;;5418697;26;20300;-63
2024/04/25 05:37:32;;;;;;;1.08;0.70;;;15.80;56.20;;;;;;5417890;26;20221;-63
2024/04/25 05:39:57;;;;;;;1.35;0.70;;;15.80;56.20;;;;;;5418245;26;20329;-64
2024/04/25 05:42:23;;;;;;;1.33;0.80;;;15.90;56.20;;;;;;5418635;26;20263;-63
2024/04/25 05:44:49;;;;;;;1.23;0.80;;;15.90;56.20;;;;;;5417233;26;20284;-64
2024/04/25 05:47:20;;;;;;;1.10;0.88;;;15.90;56.10;;;;;;5418642;26;20259;-63
2024/04/25 05:49:45;;;;;;;1.88;1.17;;;15.90;56.00;;;;;;5418324;26;20221;-63
2024/04/25 05:52:12;;;;;;;2.42;0.90;;;16.00;56.00;;;;;;5417729;26;20329;-63
2024/04/25 05:54:38;;;;;;;1.63;0.88;;;16.10;56.00;;;;;;5418378;26;20221;-63
2024/04/25 05:57:03;;;;;;;0.95;0.70;;;16.10;56.10;;;;;;5417993;26;20577;-64
2024/04/25 05:59:29;;;;;;;1.15;0.70;;;16.20;56.10;;;;;;5417600;26;20247;-64
2024/04/25 06:01:54;;;;;;;0.90;0.70;;;16.30;56.00;;;;;;5417957;26;20225;-63
2024/04/25 06:04:20;;;;;;;2.38;0.80;;;16.30;56.00;;;;;;5418122;26;20232;-63
2024/04/25 06:06:45;;;;;;;0.80;0.80;;;16.40;55.90;;;;;;5417043;26;20224;-62
2024/04/25 06:09:11;;;;;;;1.25;0.80;;;16.50;55.80;;;;;;5418242;26;20228;-63
2024/04/25 06:11:37;;;;;;;0.70;0.70;;;16.60;55.60;;;;;;5418340;26;20221;-62
2024/04/25 06:14:02;;;;;;;0.70;0.60;;;16.70;55.40;;;;;;5416470;26;20794;-62
2024/04/25 06:16:28;;;;;;;1.08;0.90;;;16.80;55.30;;;;;;5418158;26;20217;-63
2024/04/25 06:18:54;;;;;;;1.45;0.75;;;16.90;55.20;;;;;;5417299;26;20228;-63
2024/04/25 06:21:19;;;;;;;1.05;0.70;;;17.00;55.10;;;;;;5417816;26;20225;-63
2024/04/25 06:23:45;;;;;;;1.00;0.80;;;17.00;55.00;;;;;;5417433;26;20220;-63
2024/04/25 06:26:12;;;;;;;1.20;0.77;;;17.10;55.00;;;;;;5416680;26;20263;-63
2024/04/25 06:28:38;;;;;;;1.10;0.65;;;17.10;55.00;;;;;;5417984;26;20229;-63
2024/04/25 06:31:04;;;;;;;1.40;0.88;;;17.10;55.00;;;;;;5417453;26;20801;-62
2024/04/25 06:33:29;;;;;;;1.13;0.70;;;17.20;54.90;;;;;;5416703;26;20272;-63
2024/04/25 06:35:55;;;;;;;2.78;1.10;;;17.20;55.00;;;;;;5417544;26;20283;-63
2024/04/25 06:38:20;;;;;;;3.25;1.20;;;17.20;55.20;;;;;;5417870;26;20232;-64
2024/04/25 06:40:46;;;;;;;1.70;0.80;;;17.30;55.30;;;;;;5415548;26;20216;-64
2024/04/25 06:43:11;;;;;;;6.32;0.80;;;17.30;55.30;;;;;;5417738;26;20343;-64
2024/04/25 06:45:39;;;;;;;1.42;0.70;;;17.30;55.30;;;;;;5417665;26;20233;-63
2024/04/25 06:48:08;;;;;;;2.10;0.82;;;17.30;55.40;;;;;;5416781;26;20220;-63
2024/04/25 06:50:34;;;;;;;1.95;0.75;;;17.30;55.50;;;;;;5417422;26;20224;-63
2024/04/25 06:52:59;;;;;;;4.55;0.93;;;17.20;55.50;;;;;;5417488;26;20711;-64
2024/04/25 06:55:25;;;;;;;1.33;0.90;;;17.20;55.70;;;;;;5416551;26;20263;-63
2024/04/25 06:57:52;;;;;;;2.22;1.00;;;17.20;55.70;;;;;;5417192;26;20608;-63
2024/04/25 07:00:17;;;;;;;1.83;0.82;;;17.10;55.90;;;;;;5417573;26;20276;-63
2024/04/25 07:02:43;;;;;;;2.45;1.00;;;17.10;56.00;;;;;;5416332;26;20216;-63
2024/04/25 07:05:09;;;;;;;2.25;0.82;;;17.00;56.00;;;;;;5417514;26;20637;-63
2024/04/25 07:07:35;;;;;;;1.50;1.00;;;17.10;56.10;;;;;;5417609;26;20247;-63
2024/04/25 07:10:01;;;;;;;1.55;1.02;;;17.00;56.10;;;;;;5415948;26;20240;-63
2024/04/25 07:12:30;;;;;;;1.85;1.10;;;17.00;56.20;;;;;;5417532;26;20324;-63
2024/04/25 07:14:56;;;;;;;1.50;0.90;;;16.90;56.20;;;;;;5416911;26;20228;-63
2024/04/25 07:17:21;;;;;;;2.15;1.08;;;17.00;56.40;;;;;;5416387;26;20267;-63
2024/04/25 07:19:47;;;;;;;5.50;1.45;;;17.00;56.30;;;;;;5417202;26;20226;-63
2024/04/25 07:22:12;;;;;;;2.22;0.90;;;17.00;56.30;;;;;;5416824;26;20566;-63
2024/04/25 07:24:38;;;;;;;1.67;0.90;;;16.90;56.30;;;;;;5415802;26;20690;-63
2024/04/25 07:27:03;;;;;;;1.60;0.95;;;16.90;56.40;;;;;;5416806;26;20224;-62
2024/04/25 07:29:32;;;;;;;5.88;1.00;;;16.90;56.40;;;;;;5416344;26;20301;-62
2024/04/25 07:31:58;;;;;;;2.95;1.10;;;16.90;56.40;;;;;;5416706;26;20267;-63
2024/04/25 07:34:23;;;;;;;2.05;0.98;;;16.90;56.40;;;;;;5416681;26;20271;-64
2024/04/25 07:36:49;;;;;;;1.48;0.82;;;16.90;56.50;;;;;;5415758;26;20224;-62
2024/04/25 07:39:14;;;;;;;2.85;1.00;;;16.90;56.70;;;;;;5416878;26;20298;-61
2024/04/25 07:41:40;;;;;;;3.30;1.15;;;16.90;56.70;;;;;;5416779;26;20259;-62
2024/04/25 07:44:05;;;;;;;2.03;1.00;;;16.90;56.80;;;;;;5415979;26;20280;-61
2024/04/25 07:46:31;;;;;;;2.15;1.10;;;16.90;56.90;;;;;;5416838;26;20224;-61
2024/04/25 07:48:56;;;;;;;2.53;0.82;;;16.80;56.80;;;;;;5416677;26;20546;-61
2024/04/25 07:51:22;;;;;;;1.45;0.68;;;16.80;57.00;;;;;;5416033;26;20307;-61
2024/04/25 07:53:47;;;;;;;3.20;1.02;;;16.80;56.90;;;;;;5416390;26;21060;-62
2024/04/25 07:56:13;;;;;;;3.10;1.25;;;16.80;56.80;;;;;;5416776;26;20668;-61
2024/04/25 07:58:39;;;;;;;1.73;1.08;;;16.80;56.70;;;;;;5415894;26;20715;-62
2024/04/25 08:01:04;;;;;;;1.85;0.90;;;16.80;56.80;;;;;;5416390;26;20788;-61
2024/04/25 08:03:30;;;;;;;1.77;0.98;;;16.70;56.90;;;;;;5416666;26;20220;-61
2024/04/25 08:05:55;;;;;;;1.95;1.00;;;16.70;56.90;;;;;;5415370;26;20556;-61
2024/04/25 08:08:22;;;;;;;3.20;1.27;;;16.70;57.00;;;;;;5416681;26;20224;-61
2024/04/25 08:10:48;;;;;;;2.67;1.00;;;16.70;57.00;;;;;;5416275;26;20227;-61
2024/04/25 08:13:15;;;;;;;1.17;1.00;;;16.70;57.00;;;;;;5415740;26;20257;-61
2024/04/25 08:15:41;;;;;;;1.48;0.90;;;16.70;56.90;;;;;;5416251;26;20220;-61
2024/04/25 08:18:06;;;;;;;2.65;0.80;;;16.70;57.00;;;;;;5416473;26;20229;-62
2024/04/25 08:20:33;;;;;;;1.08;0.93;;;16.70;57.10;;;;;;5415634;26;20232;-61
2024/04/25 08:22:58;;;;;;;2.35;0.98;;;16.70;57.10;;;;;;5415949;26;20220;-61
2024/04/25 08:25:24;;;;;;;2.60;1.17;;;16.70;57.30;;;;;;5416403;26;20325;-61
2024/04/25 08:27:49;;;;;;;1.10;0.80;;;16.60;57.10;;;;;;5415150;26;20221;-61
2024/04/25 08:30:15;;;;;;;1.58;1.00;;;16.70;57.20;;;;;;5416230;26;20225;-61
2024/04/25 08:32:41;;;;;;;1.00;0.73;;;16.60;57.20;;;;;;5415019;26;20585;-61
2024/04/25 08:35:07;;;;;;;2.17;1.00;;;16.60;57.20;;;;;;5416204;26;20751;-61
2024/04/25 08:37:33;;;;;;;1.33;0.95;;;16.70;57.30;;;;;;5416016;26;20220;-62
2024/04/25 08:39:59;;;;;;;2.50;0.85;;;16.60;57.10;;;;;;5415050;26;20820;-62
2024/04/25 08:42:26;;;;;;;1.63;0.90;;;16.60;57.30;;;;;;5416207;26;20683;-62
2024/04/25 08:44:52;;;;;;;2.30;1.23;;;16.60;57.30;;;;;;5384984;26;20228;-61
2024/04/25 08:47:18;;;;;;;1.73;0.90;;;16.60;57.30;;;;;;5415240;26;20216;-61
2024/04/25 08:49:43;;;;;;;2.13;1.17;;;16.60;57.30;;;;;;5355411;26;20255;-61
2024/04/25 08:52:09;;;;;;;1.45;1.02;;;16.60;57.30;;;;;;5416078;26;20220;-61
2024/04/25 08:54:37;;;;;;;2.92;1.38;;;16.60;57.30;;;;;;5383839;26;20263;-61
2024/04/25 08:57:02;;;;;;;1.98;1.02;;;16.60;57.10;;;;;;5384192;26;20225;-61
2024/04/25 08:59:28;;;;;;;2.45;1.05;;;16.60;57.30;;;;;;5415655;26;20606;-61
2024/04/25 09:01:53;;;;;;;1.80;0.90;;;16.60;57.20;;;;;;5414612;26;20263;-61
2024/04/25 09:04:19;;;;;;;1.38;0.95;;;16.60;57.30;;;;;;5415680;26;20333;-61
2024/04/25 09:06:45;;;;;;;1.88;0.98;;;16.60;57.40;;;;;;5355430;26;20259;-61
2024/04/25 09:09:15;;;;;;;1.25;0.93;;;16.50;57.40;;;;;;5414869;26;20224;-61
2024/04/25 09:11:41;;;;;;;1.00;0.90;;;16.50;57.50;;;;;;5415329;26;20216;-61
2024/04/25 09:14:09;;;;;;;1.45;1.00;;;16.40;57.60;;;;;;5415567;26;20313;-61
2024/04/25 09:16:37;;;;;;;1.02;0.88;;;16.40;57.50;;;;;;5384274;26;20258;-61
2024/04/25 09:19:03;;;;;;;1.80;1.10;;;16.50;57.60;;;;;;5414984;26;20233;-61
2024/04/25 09:21:28;;;;;;;1.70;0.90;;;16.40;57.70;;;;;;5384309;26;20228;-61
2024/04/25 09:23:54;;;;;;;1.90;1.17;;;16.40;57.60;;;;;;5413690;26;20220;-61
2024/04/25 09:26:20;;;;;;;2.17;0.95;;;16.40;57.60;;;;;;5415276;26;20224;-61
2024/04/25 09:28:45;;;;;;;1.30;1.02;;;16.40;57.60;;;;;;5414813;26;20260;-61
2024/04/25 09:31:11;;;;;;;1.75;0.90;;;16.50;57.30;;;;;;5354202;26;20220;-61
2024/04/25 09:33:36;;;;;;;2.25;1.10;;;16.50;57.30;;;;;;5415318;26;20221;-61
2024/04/25 09:36:02;;;;;;;3.58;1.30;;;16.60;56.90;;;;;;5413889;26;20221;-62
2024/04/25 09:38:28;;;;;;;1.42;0.90;;;16.60;56.90;;;;;;5383862;26;20228;-61
2024/04/25 09:40:53;;;;;;;1.42;0.80;;;16.60;56.90;;;;;;5414668;26;20232;-61
2024/04/25 09:43:19;;;;;;;1.90;1.10;;;16.60;56.90;;;;;;5382871;26;21150;-62
2024/04/25 09:45:45;;;;;;;0.70;0.70;;;16.60;56.70;;;;;;5383703;26;20263;-62
2024/04/25 09:48:17;;;;;;;2.38;1.00;;;16.60;56.70;;;;;;5416484;26;20225;-61
2024/04/25 09:50:46;;;;;;;1.48;0.80;;;16.70;56.90;;;;;;5387700;26;20576;-61
2024/04/25 09:53:24;;;;;;;1.67;0.82;;;16.70;56.70;;;;;;5418613;26;20220;-61
2024/04/25 09:55:49;;;;;;;1.48;0.90;;;16.70;56.70;;;;;;5388314;26;20324;-62
2024/04/25 09:58:36;;;;;;;2.35;1.20;;;16.70;56.60;;;;;;5417477;26;20696;-61
2024/04/25 10:01:01;;;;;;;3.72;0.95;;;16.70;56.80;;;;;;5386889;26;20399;-61
2024/04/25 10:03:27;;;;;;;2.83;1.27;;;16.70;56.70;;;;;;5418302;26;20699;-61
2024/04/25 10:05:53;;;;;;;2.25;1.48;;;16.70;56.60;;;;;;5357034;26;20329;-61
2024/04/25 10:08:19;;;;;;;1.45;1.08;;;16.70;56.60;;;;;;5417510;26;20220;-61
2024/04/25 10:10:44;;;;;;;2.15;1.17;;;16.70;56.60;;;;;;5386528;26;20232;-61
2024/04/25 10:13:16;;;;;;;0.80;0.80;;;16.70;56.50;;;;;;5386181;26;20221;-61
2024/04/25 10:15:41;;;;;;;1.83;0.93;;;16.80;56.50;;;;;;5417765;26;20255;-62
2024/04/25 10:18:07;;;;;;;1.50;0.82;;;16.80;56.50;;;;;;5417324;26;20228;-61
2024/04/25 10:20:33;;;;;;;0.90;0.80;;;16.80;56.50;;;;;;5418163;26;20221;-61
2024/04/25 10:22:59;;;;;;;0.80;0.70;;;16.80;56.50;;;;;;5417733;26;20682;-61
2024/04/25 10:25:25;;;;;;;1.02;0.77;;;16.80;56.60;;;;;;5417349;26;20208;-61
2024/04/25 10:27:58;;;;;;;1.35;1.00;;;16.70;56.60;;;;;;5417492;26;20220;-61
2024/04/25 10:30:23;;;;;;;1.48;0.82;;;16.80;56.60;;;;;;5418031;26;20220;-62
2024/04/25 10:32:49;;;;;;;0.65;0.65;;;16.80;56.60;;;;;;5416722;26;20267;-62
2024/04/25 10:35:14;;;;;;;1.15;0.77;;;16.70;56.50;;;;;;5417999;26;20267;-62
2024/04/25 10:37:40;;;;;;;1.20;0.90;;;16.80;56.60;;;;;;5417709;26;20220;-62
2024/04/25 10:40:12;;;;;;;1.85;1.00;;;16.70;56.60;;;;;;5417024;26;20224;-62
2024/04/25 10:42:37;;;;;;;1.48;1.00;;;16.80;56.80;;;;;;5417790;26;20262;-63
2024/04/25 10:45:03;;;;;;;2.25;0.70;;;16.80;56.60;;;;;;5416973;26;20710;-62
2024/04/25 10:47:29;;;;;;;1.48;0.68;;;16.80;56.60;;;;;;5416790;26;20217;-63
2024/04/25 10:49:54;;;;;;;1.63;0.80;;;16.80;56.50;;;;;;5416994;26;20562;-63
2024/04/25 10:52:20;;;;;;;1.08;0.65;;;16.80;56.50;;;;;;5383851;26;20217;-62
2024/04/25 10:54:45;;;;;;;1.00;0.73;;;16.80;56.50;;;;;;5416221;26;20626;-62
2024/04/25 10:57:14;;;;;;;2.15;0.85;;;16.80;56.50;;;;;;5417437;26;20566;-62
2024/04/25 10:59:40;;;;;;;2.20;1.10;;;16.70;56.70;;;;;;5416679;26;20255;-62
2024/04/25 11:02:08;;;;;;;1.40;0.75;;;16.70;56.80;;;;;;5416681;26;20221;-62
2024/04/25 11:04:35;;;;;;;2.05;0.73;;;16.60;56.90;;;;;;5417512;26;20272;-63
2024/04/25 11:07:00;;;;;;;3.13;1.10;;;16.50;56.80;;;;;;5417049;26;20213;-65
2024/04/25 11:09:26;;;;;;;2.88;1.05;;;16.50;56.80;;;;;;5384769;26;20275;-65
2024/04/25 11:11:52;;;;;;;1.23;0.70;;;16.50;56.80;;;;;;5414846;26;20242;-65
2024/04/25 11:14:17;;;;;;;1.25;1.00;;;16.50;56.70;;;;;;5383950;26;20216;-66
2024/04/25 11:16:43;;;;;;;1.80;1.00;;;16.50;56.70;;;;;;5416213;26;20217;-66
2024/04/25 11:19:09;;;;;;;1.05;0.90;;;16.50;56.70;;;;;;5416214;26;20249;-65
2024/04/25 11:21:34;;;;;;;2.25;0.80;;;16.50;56.70;;;;;;5414995;26;20225;-65
2024/04/25 11:24:00;;;;;;;1.55;1.05;;;16.50;56.70;;;;;;5415477;26;20220;-65
2024/04/25 11:26:25;;;;;;;1.52;1.00;;;16.50;56.70;;;;;;5416538;26;20228;-61
2024/04/25 11:28:51;;;;;;;2.97;1.30;;;16.60;56.70;;;;;;5355602;26;20277;-61
2024/04/25 11:31:16;;;;;;;2.47;1.08;;;16.60;56.90;;;;;;5416713;26;20266;-62
2024/04/25 11:33:42;;;;;;;4.85;1.40;;;16.60;57.00;;;;;;5416614;26;20709;-64
2024/04/25 11:36:08;;;;;;;1.90;1.20;;;16.50;56.90;;;;;;5416225;26;20224;-63
2024/04/25 11:38:33;;;;;;;3.53;1.25;;;16.50;57.00;;;;;;5385773;26;20325;-63
2024/04/25 11:40:59;;;;;;;4.15;1.23;;;16.50;56.90;;;;;;5416524;26;20284;-64
2024/04/25 11:43:25;;;;;;;2.42;1.20;;;16.50;57.00;;;;;;5355776;26;20225;-65
2024/04/25 11:45:51;;;;;;;2.88;1.23;;;16.50;56.90;;;;;;5416588;26;20220;-65
2024/04/25 11:48:18;;;;;;;3.22;1.10;;;16.50;56.90;;;;;;5417031;26;20220;-65
2024/04/25 11:50:44;;;;;;;4.20;1.15;;;16.60;56.90;;;;;;5415601;26;20696;-65
2024/04/25 11:53:10;;;;;;;4.82;1.00;;;16.60;56.90;;;;;;5416960;26;20550;-66
2024/04/25 11:55:36;;;;;;;1.20;0.90;;;16.60;56.90;;;;;;5416872;26;20679;-65
2024/04/25 11:58:02;;;;;;;3.17;1.15;;;16.60;56.90;;;;;;5415591;26;20313;-66
2024/04/25 12:00:28;;;;;;;2.55;1.00;;;16.60;56.90;;;;;;5416768;26;20272;-65
2024/04/25 12:02:53;;;;;;;2.35;0.95;;;16.60;56.90;;;;;;5416315;26;20217;-65
2024/04/25 12:05:19;;;;;;;2.65;0.90;;;16.60;56.80;;;;;;5415910;26;20220;-65
2024/04/25 12:07:49;;;;;;;1.42;1.00;;;16.60;56.80;;;;;;5416347;26;20259;-64
2024/04/25 12:10:15;;;;;;;2.63;0.90;;;16.60;56.80;;;;;;5416155;26;20787;-66
2024/04/25 12:12:41;;;;;;;2.05;0.90;;;16.60;57.40;;;;;;5415471;26;20228;-62
2024/04/25 12:15:07;;;;;;;2.92;1.00;;;16.60;56.80;;;;;;5416553;26;20271;-62
2024/04/25 12:17:33;;;;;;;0.82;0.73;;;16.60;56.80;;;;;;5416441;26;20224;-63
2024/04/25 12:19:59;;;;;;;1.45;1.10;;;16.60;56.90;;;;;;5415501;26;20258;-62
2024/04/25 12:22:24;;;;;;;1.73;0.90;;;16.60;56.90;;;;;;5416563;26;20225;-63
2024/04/25 12:24:50;;;;;;;2.97;1.13;;;16.60;57.00;;;;;;5415060;26;20263;-63
2024/04/25 12:27:15;;;;;;;2.40;0.90;;;16.60;57.00;;;;;;5416450;26;20220;-62
2024/04/25 12:29:44;;;;;;;2.05;0.82;;;16.50;57.00;;;;;;5415978;26;20764;-62
2024/04/25 12:32:10;;;;;;;1.50;1.08;;;16.50;57.00;;;;;;5415531;26;20255;-62
2024/04/25 12:34:35;;;;;;;1.58;1.17;;;16.50;57.00;;;;;;5416282;26;20348;-63
2024/04/25 12:37:01;;;;;;;2.08;0.80;;;16.50;57.00;;;;;;5415820;26;20224;-63
2024/04/25 12:39:27;;;;;;;1.95;1.00;;;16.50;57.10;;;;;;5415440;26;20212;-63
2024/04/25 12:41:54;;;;;;;2.25;0.90;;;16.50;57.00;;;;;;5415752;26;20224;-63
2024/04/25 12:44:20;;;;;;;1.27;0.90;;;16.50;57.00;;;;;;5416032;26;20259;-62
2024/04/25 12:46:47;;;;;;;2.88;1.27;;;16.50;57.20;;;;;;5414454;26;20256;-61